Time;durP1;ratioP1;P1;durP2;ratioP2;P2;SDS_P1;SDS_P2;PMS_P1;PMS_P2;Temp;Humidity;BMP_temperature;BMP_pressure;BME280_temperature;BME280_humidity;BME280_pressure;Samples;Min_cycle;Max_cycle;Signal;HPM_P1;HPM_P2
2021/05/18 00:00:46;;;;;;;;;;;12.40;97.60;;;;;;5092589;28;19908;-69
2021/05/18 00:03:14;;;;;;;;;;;12.50;97.20;;;;;;5091944;28;19955;-70
2021/05/18 00:05:42;;;;;;;;;;;12.50;96.90;;;;;;5113937;28;19908;-67
2021/05/18 00:08:11;;;;;;;;;;;12.60;96.80;;;;;;5113538;28;19916;-69
2021/05/18 00:13:25;;;;;;;;;;;12.60;96.70;;;;;;5114153;28;19970;-68
2021/05/18 00:15:55;;;;;;;;;;;12.80;96.30;;;;;;5113859;28;20002;-69
2021/05/18 00:18:22;;;;;;;;;;;12.80;95.90;;;;;;5113707;28;20028;-69
2021/05/18 00:20:49;;;;;;;;;;;12.80;96.60;;;;;;5113538;28;19908;-67
2021/05/18 00:23:16;;;;;;;;;;;12.90;96.00;;;;;;5113567;28;19907;-68
2021/05/18 00:25:43;;;;;;;;;;;12.90;96.10;;;;;;5113732;28;19907;-68
2021/05/18 00:28:10;;;;;;;;;;;12.90;95.80;;;;;;5113792;28;20445;-67
2021/05/18 00:30:38;;;;;;;;;;;13.00;96.20;;;;;;5113882;28;20366;-69
2021/05/18 00:33:07;;;;;;;;;;;13.10;96.40;;;;;;5113474;28;19916;-67
2021/05/18 00:35:34;;;;;;;;;;;13.10;95.80;;;;;;5113569;28;19915;-70
2021/05/18 00:38:00;;;;;;;;;;;13.10;95.60;;;;;;5113335;28;19954;-67
2021/05/18 00:40:27;;;;;;;;;;;13.10;95.70;;;;;;5113477;28;19908;-67
2021/05/18 00:42:55;;;;;;;;;;;13.20;95.60;;;;;;5113263;28;19919;-67
2021/05/18 00:45:38;;;;;;;;;;;13.30;95.30;;;;;;5113707;28;19919;-70
2021/05/18 00:48:07;;;;;;;;;;;13.40;95.20;;;;;;5113295;28;19920;-67
2021/05/18 00:50:34;;;;;;;;;;;13.50;95.60;;;;;;5112149;28;19919;-67
2021/05/18 00:53:01;;;;;;;;;;;13.50;95.20;;;;;;5113290;28;19912;-68
2021/05/18 01:00:39;;;;;;;;;;;13.70;94.50;;;;;;5113940;28;19931;-72
2021/05/18 01:03:06;;;;;;;;;;;14.00;94.50;;;;;;5113256;28;19915;-70
2021/05/18 01:08:17;;;;;;;;;;;14.80;92.40;;;;;;5113068;28;19958;-70
2021/05/18 01:10:44;;;;;;;;;;;15.10;92.00;;;;;;5113045;28;20363;-69
2021/05/18 01:13:11;;;;;;;;;;;15.20;92.00;;;;;;5113252;28;19914;-69
2021/05/18 01:15:41;;;;;;;;;;;15.20;91.60;;;;;;5114915;28;19983;-69
2021/05/18 01:18:08;;;;;;;;;;;15.30;91.10;;;;;;5117300;28;20303;-69
2021/05/18 01:20:41;;;;;;;;;;;15.60;90.60;;;;;;5117317;28;19908;-69
2021/05/18 01:23:08;;;;;;;;;;;15.60;91.20;;;;;;5117001;28;19912;-71
2021/05/18 01:25:35;;;;;;;;;;;15.40;91.60;;;;;;5115785;28;20006;-70
2021/05/18 01:28:02;;;;;;;;;;;15.30;91.30;;;;;;5116941;28;19967;-68
2021/05/18 01:30:29;;;;;;;;;;;15.20;90.80;;;;;;5117062;28;19914;-72
2021/05/18 01:32:55;;;;;;;;;;;15.10;90.80;;;;;;5116760;28;20065;-69
2021/05/18 01:35:22;;;;;;;;;;;15.00;90.90;;;;;;5116652;28;19958;-71
2021/05/18 01:37:49;;;;;;;;;;;15.00;90.80;;;;;;5116496;28;19908;-69
2021/05/18 01:42:57;;;;;;;;;;;14.90;90.80;;;;;;5116233;28;19922;-72
2021/05/18 01:45:32;;;;;;;;;;;15.00;91.00;;;;;;5116618;28;19912;-71
2021/05/18 01:48:03;;;;;;;;;;;15.10;90.80;;;;;;5116543;28;19923;-69
2021/05/18 01:50:31;;;;;;;;;;;15.20;90.40;;;;;;5116480;28;19915;-70
2021/05/18 01:52:57;;;;;;;;;;;15.00;90.30;;;;;;5116067;28;19912;-70
2021/05/18 01:57:52;;;;;;;;;;;15.00;91.00;;;;;;5116358;28;19915;-70
2021/05/18 02:00:20;;;;;;;;;;;15.00;90.70;;;;;;5116539;28;19996;-71
2021/05/18 02:02:47;;;;;;;;;;;15.00;90.80;;;;;;5116084;28;20354;-71
2021/05/18 02:05:15;;;;;;;;;;;15.00;90.50;;;;;;5116317;28;19933;-71
2021/05/18 02:07:43;;;;;;;;;;;15.00;90.80;;;;;;5115868;28;20400;-70
2021/05/18 02:10:12;;;;;;;;;;;15.00;90.40;;;;;;5116259;28;19908;-70
2021/05/18 02:12:39;;;;;;;;;;;15.00;91.00;;;;;;5116145;28;20269;-70
2021/05/18 02:15:38;;;;;;;;;;;15.10;89.80;;;;;;5115864;28;20358;-69
2021/05/18 02:21:23;;;;;;;;;;;15.20;89.70;;;;;;5115968;28;19908;-69
2021/05/18 02:26:22;;;;;;;;;;;15.40;89.00;;;;;;5115622;28;19954;-70
2021/05/18 02:28:49;;;;;;;;;;;15.40;88.60;;;;;;5114556;27;20293;-69
2021/05/18 02:31:17;;;;;;;;;;;15.50;89.90;;;;;;5115557;28;19909;-69
2021/05/18 02:33:48;;;;;;;;;;;15.40;89.90;;;;;;5115739;28;20352;-69
2021/05/18 02:36:15;;;;;;;;;;;15.40;90.10;;;;;;5115544;28;19953;-70
2021/05/18 02:38:42;;;;;;;;;;;15.60;90.20;;;;;;5115432;28;20411;-69
2021/05/18 02:41:09;;;;;;;;;;;15.60;90.10;;;;;;5115491;28;19953;-70
2021/05/18 02:49:07;;;;;;;;;;;15.90;89.20;;;;;;5115545;28;19912;-68
2021/05/18 02:49:09;;;;;;;;;;;15.90;89.20;;;;;;5115283;28;19925;-70
2021/05/18 02:51:47;;;;;;;;;;;15.80;89.60;;;;;;5115373;28;19908;-69
2021/05/18 02:54:16;;;;;;;;;;;15.70;90.00;;;;;;5115540;28;19970;-70
2021/05/18 02:56:55;;;;;;;;;;;15.90;89.90;;;;;;5115071;28;20400;-70
2021/05/18 02:59:22;;;;;;;;;;;16.00;88.70;;;;;;5115346;28;19908;-71
2021/05/18 03:01:54;;;;;;;;;;;16.10;88.00;;;;;;5115152;28;19908;-72
2021/05/18 03:04:21;;;;;;;;;;;16.10;88.70;;;;;;5115407;28;19914;-70
2021/05/18 03:06:51;;;;;;;;;;;16.10;89.80;;;;;;5114787;28;19921;-71
2021/05/18 03:09:18;;;;;;;;;;;15.90;89.80;;;;;;5115087;28;19953;-71
2021/05/18 03:11:45;;;;;;;;;;;15.90;89.60;;;;;;5115010;28;19915;-71
2021/05/18 03:14:13;;;;;;;;;;;15.80;90.20;;;;;;5114945;28;19957;-71
2021/05/18 03:16:40;;;;;;;;;;;15.90;89.00;;;;;;5114945;28;19919;-70
2021/05/18 03:19:09;;;;;;;;;;;15.90;89.70;;;;;;5114553;28;19953;-72
2021/05/18 03:21:36;;;;;;;;;;;15.90;90.00;;;;;;5114728;28;19915;-69
2021/05/18 03:24:04;;;;;;;;;;;16.00;89.40;;;;;;5114936;28;19912;-70
2021/05/18 03:26:31;;;;;;;;;;;16.00;89.60;;;;;;5114880;28;19939;-73
2021/05/18 03:29:00;;;;;;;;;;;16.00;89.40;;;;;;5114413;28;20003;-71
2021/05/18 03:36:59;;;;;;;;;;;15.90;90.00;;;;;;5114663;28;19953;-71
2021/05/18 03:39:26;;;;;;;;;;;16.00;90.40;;;;;;5113808;28;19947;-70
2021/05/18 03:42:03;;;;;;;;;;;16.20;89.60;;;;;;5114492;28;19908;-68
2021/05/18 03:44:49;;;;;;;;;;;16.20;88.50;;;;;;5115139;28;19920;-70
2021/05/18 03:52:56;;;;;;;;;;;16.50;90.10;;;;;;5114260;28;19915;-70
2021/05/18 04:04:21;;;;;;;;;;;16.60;88.90;;;;;;5091913;28;20003;-69
2021/05/18 04:17:26;;;;;;;;;;;16.40;90.10;;;;;;5113722;28;19915;-69
2021/05/18 04:22:44;;;;;;;;;;;16.40;90.50;;;;;;5113416;28;19954;-68
2021/05/18 04:25:47;;;;;;;;;;;16.50;90.20;;;;;;5113734;28;19998;-69
2021/05/18 04:50:08;;;;;;;;;;;16.30;90.40;;;;;;5117599;28;19960;-70
2021/05/18 04:52:53;;;;;;;;;;;16.40;90.40;;;;;;5120108;28;19949;-71
2021/05/18 05:00:54;;;;;;;;;;;16.40;89.50;;;;;;5119969;28;19915;-70
2021/05/18 05:06:15;;;;;;;;;;;16.30;89.80;;;;;;5120058;28;19912;-69
2021/05/18 05:16:20;;;;;;;;;;;16.20;90.50;;;;;;5119908;28;20398;-70
2021/05/18 05:18:47;;;;;;;;;;;16.30;90.10;;;;;;5119744;28;19915;-70
2021/05/18 05:21:13;;;;;;;;;;;16.20;90.60;;;;;;5119761;28;19914;-70
2021/05/18 05:23:40;;;;;;;;;;;16.20;90.60;;;;;;5119738;28;20437;-71
2021/05/18 05:26:07;;;;;;;;;;;16.20;90.40;;;;;;5119436;28;20414;-70
2021/05/18 05:28:33;;;;;;;;;;;16.20;90.60;;;;;;5119603;28;19915;-71
2021/05/18 05:31:00;;;;;;;;;;;16.20;90.60;;;;;;5119714;28;19907;-68
2021/05/18 05:33:27;;;;;;;;;;;16.20;90.80;;;;;;5118553;28;19918;-68
2021/05/18 05:35:53;;;;;;;;;;;16.10;90.90;;;;;;5119607;28;19911;-68
2021/05/18 05:38:23;;;;;;;;;;;16.10;90.80;;;;;;5119899;28;19943;-68
2021/05/18 05:40:50;;;;;;;;;;;16.10;91.00;;;;;;5119479;28;19908;-69
2021/05/18 05:43:16;;;;;;;;;;;16.10;91.10;;;;;;5119496;28;19931;-70
2021/05/18 05:45:43;;;;;;;;;;;16.00;91.50;;;;;;5118429;28;20270;-70
2021/05/18 05:48:10;;;;;;;;;;;15.90;91.60;;;;;;5119589;28;19923;-71
2021/05/18 05:50:36;;;;;;;;;;;16.00;91.70;;;;;;5119493;28;20004;-72
2021/05/18 05:53:03;;;;;;;;;;;16.00;91.70;;;;;;5119451;28;20350;-72
2021/05/18 05:55:30;;;;;;;;;;;16.00;91.90;;;;;;5119582;28;19910;-72
2021/05/18 05:57:56;;;;;;;;;;;15.90;91.60;;;;;;5119579;27;19911;-70
2021/05/18 06:00:23;;;;;;;;;;;16.00;91.60;;;;;;5118602;28;19908;-71
2021/05/18 06:02:50;;;;;;;;;;;16.00;91.70;;;;;;5115831;28;19996;-70
2021/05/18 06:05:17;;;;;;;;;;;15.90;91.70;;;;;;5116324;28;20392;-71
2021/05/18 06:07:43;;;;;;;;;;;15.90;92.00;;;;;;5116259;28;19915;-71
2021/05/18 06:10:27;;;;;;;;;;;15.90;92.10;;;;;;5116208;28;19908;-70
2021/05/18 06:48:04;;;;;;;;;;;15.20;94.00;;;;;;5092752;28;19993;-71
2021/05/18 06:50:32;;;;;;;;;;;15.20;93.90;;;;;;5110617;28;20308;-73
2021/05/18 06:52:59;;;;;;;;;;;15.20;94.30;;;;;;5115028;28;19912;-71
2021/05/18 06:55:30;;;;;;;;;;;15.10;94.20;;;;;;5115469;28;19912;-71
2021/05/18 06:58:16;;;;;;;;;;;15.00;94.40;;;;;;5115148;28;19912;-71
2021/05/18 07:00:43;;;;;;;;;;;15.00;94.70;;;;;;5115415;28;19908;-72
2021/05/18 07:03:12;;;;;;;;;;;15.00;94.20;;;;;;5115141;28;19908;-71
2021/05/18 07:05:58;;;;;;;;;;;15.00;94.80;;;;;;5114943;28;19939;-72
2021/05/18 07:10:54;;;;;;;;;;;15.00;94.40;;;;;;5114829;28;19912;-71
2021/05/18 07:13:21;;;;;;;;;;;14.90;94.90;;;;;;5113822;28;19951;-69
2021/05/18 07:15:47;;;;;;;;;;;14.80;94.50;;;;;;5115000;28;19915;-70
2021/05/18 07:18:14;;;;;;;;;;;14.70;94.80;;;;;;5115040;28;19908;-72
2021/05/18 07:20:41;;;;;;;;;;;14.70;94.90;;;;;;5097488;28;19909;-71
2021/05/18 07:23:16;;;;;;;;;;;14.70;94.80;;;;;;5094122;28;20239;-71
2021/05/18 07:25:43;;;;;;;;;;;14.70;94.90;;;;;;5094147;28;20416;-70
2021/05/18 07:28:11;;;;;;;;;;;14.70;94.70;;;;;;5094174;28;19923;-69
2021/05/18 07:30:40;;;;;;;;;;;14.70;95.00;;;;;;5093929;28;20007;-71
2021/05/18 07:33:08;;;;;;;;;;;14.60;95.20;;;;;;5093783;28;19916;-69
2021/05/18 07:35:35;;;;;;;;;;;14.60;95.30;;;;;;5126020;27;20267;-71
2021/05/18 07:38:01;;;;;;;;;;;14.50;95.40;;;;;;5094186;28;19988;-71
2021/05/18 07:40:28;;;;;;;;;;;14.50;95.30;;;;;;5092426;28;20561;-71
2021/05/18 07:42:55;;;;;;;;;;;14.40;95.50;;;;;;5091249;28;19912;-71
2021/05/18 07:45:26;;;;;;;;;;;14.40;95.60;;;;;;5091650;28;19912;-70
2021/05/18 07:48:00;;;;;;;;;;;14.50;95.50;;;;;;5091691;28;19920;-69
2021/05/18 07:50:46;;;;;;;;;;;14.50;95.80;;;;;;5091173;28;19919;-71
2021/05/18 08:06:57;;;;;;;;;;;14.40;96.10;;;;;;5090551;28;20022;-71
2021/05/18 08:09:24;;;;;;;;;;;14.40;96.50;;;;;;5089812;28;19930;-71
2021/05/18 08:11:51;;;;;;;;;;;14.30;96.60;;;;;;5091235;28;19908;-70
2021/05/18 08:14:20;;;;;;;;;;;14.30;96.50;;;;;;5090976;28;19934;-70
2021/05/18 08:22:43;;;;;;;;;;;14.30;96.80;;;;;;5091450;28;19962;-71
2021/05/18 09:29:35;;;;;;;;;;;13.80;99.50;;;;;;5072484;28;19924;-70
2021/05/18 09:49:14;;;;;;;;;;;13.80;99.90;;;;;;5075895;28;20291;-68
2021/05/18 10:21:57;;;;;;;;;;;13.70;99.90;;;;;;5082552;28;19951;-68
2021/05/18 10:35:40;;;;;;;;;;;13.70;99.90;;;;;;5076609;28;19970;-69
2021/05/18 10:38:09;;;;;;;;;;;13.70;99.90;;;;;;5076049;28;20011;-68
2021/05/18 10:40:37;;;;;;;;;;;13.70;99.90;;;;;;5075989;28;19986;-71
2021/05/18 10:43:04;;;;;;;;;;;13.70;99.90;;;;;;5075826;28;20016;-71
2021/05/18 10:45:49;;;;;;;;;;;13.70;99.90;;;;;;5075360;28;20359;-71
2021/05/18 10:48:16;;;;;;;;;;;13.70;99.90;;;;;;5074497;28;19916;-70
2021/05/18 10:50:42;;;;;;;;;;;13.60;99.90;;;;;;5074693;28;19908;-70
2021/05/18 10:53:29;;;;;;;;;;;13.60;99.90;;;;;;5074732;28;19912;-70
2021/05/18 10:56:10;;;;;;;;;;;13.70;99.90;;;;;;5074481;28;19908;-71
2021/05/18 10:58:39;;;;;;;;;;;13.70;99.90;;;;;;5074645;28;20316;-68
2021/05/18 11:01:06;;;;;;;;;;;13.70;99.90;;;;;;5074518;28;19955;-68
2021/05/18 11:03:36;;;;;;;;;;;13.70;99.90;;;;;;5074645;28;19908;-69
2021/05/18 11:06:08;;;;;;;;;;;13.70;99.90;;;;;;5073224;28;20317;-68
2021/05/18 11:08:35;;;;;;;;;;;13.70;99.90;;;;;;5074507;28;19982;-69
2021/05/18 11:11:02;;;;;;;;;;;13.70;99.90;;;;;;5072952;28;20294;-71
2021/05/18 11:13:30;;;;;;;;;;;13.70;99.90;;;;;;5074327;28;19916;-71
2021/05/18 11:15:58;;;;;;;;;;;13.70;99.90;;;;;;5072966;28;19912;-70
2021/05/18 11:18:31;;;;;;;;;;;13.70;99.90;;;;;;5074321;28;19908;-69
2021/05/18 11:21:06;;;;;;;;;;;13.70;99.90;;;;;;5082714;28;19912;-71
2021/05/18 11:23:33;;;;;;;;;;;13.70;99.90;;;;;;5082169;28;19912;-70
2021/05/18 11:26:06;;;;;;;;;;;13.70;99.90;;;;;;5090761;28;20051;-68
2021/05/18 11:28:37;;;;;;;;;;;13.70;99.90;;;;;;5094106;28;19961;-69
2021/05/18 11:31:19;;;;;;;;;;;13.70;99.90;;;;;;5093804;28;19920;-70
2021/05/18 11:33:50;;;;;;;;;;;13.70;99.90;;;;;;5093745;28;19912;-70
2021/05/18 11:36:18;;;;;;;;;;;13.60;99.90;;;;;;5093240;28;19934;-68
2021/05/18 11:38:55;;;;;;;;;;;13.60;99.90;;;;;;5093664;28;19919;-70
2021/05/18 11:41:29;;;;;;;;;;;13.60;99.90;;;;;;5092155;28;19912;-71
2021/05/18 11:43:56;;;;;;;;;;;13.60;99.90;;;;;;5091674;28;19924;-69
2021/05/18 11:46:24;;;;;;;;;;;13.60;99.90;;;;;;5091388;28;20307;-71
2021/05/18 11:48:54;;;;;;;;;;;13.60;99.90;;;;;;5091451;28;20282;-69
2021/05/18 11:51:20;;;;;;;;;;;13.50;99.90;;;;;;5091897;28;20012;-68
2021/05/18 11:53:50;;;;;;;;;;;13.40;99.90;;;;;;5091629;28;19954;-70
2021/05/18 11:56:17;;;;;;;;;;;13.40;99.90;;;;;;5093586;28;19920;-72
2021/05/18 11:58:43;;;;;;;;;;;13.30;99.90;;;;;;5092754;28;19914;-68
2021/05/18 12:01:10;;;;;;;;;;;13.30;99.90;;;;;;5093235;28;19912;-69
2021/05/18 12:03:37;;;;;;;;;;;13.30;99.90;;;;;;5093555;28;19912;-70
2021/05/18 12:06:04;;;;;;;;;;;13.20;99.90;;;;;;5093445;28;20291;-71
2021/05/18 12:08:38;;;;;;;;;;;13.20;99.90;;;;;;5093407;28;20388;-69
2021/05/18 12:11:11;;;;;;;;;;;13.20;99.90;;;;;;5093111;28;19913;-71
2021/05/18 12:13:38;;;;;;;;;;;13.20;99.90;;;;;;5093370;28;19943;-70
2021/05/18 12:16:07;;;;;;;;;;;13.30;99.90;;;;;;5092933;28;19909;-68
2021/05/18 12:18:37;;;;;;;;;;;13.20;99.90;;;;;;5093397;28;19912;-70
2021/05/18 12:21:06;;;;;;;;;;;13.20;99.90;;;;;;5093154;28;19931;-69
2021/05/18 12:23:33;;;;;;;;;;;13.10;99.90;;;;;;5093189;28;19915;-69
2021/05/18 12:26:16;;;;;;;;;;;13.10;99.90;;;;;;5093194;28;19912;-70
2021/05/18 12:28:57;;;;;;;;;;;13.10;99.90;;;;;;5093067;28;19985;-71
2021/05/18 12:31:28;;;;;;;;;;;13.00;99.90;;;;;;5092830;28;20008;-71
2021/05/18 12:33:55;;;;;;;;;;;13.00;99.90;;;;;;5093014;28;19909;-69
2021/05/18 12:36:21;;;;;;;;;;;12.90;99.90;;;;;;5093064;28;19908;-70
2021/05/18 12:39:07;;;;;;;;;;;12.90;99.90;;;;;;5092774;28;20003;-70
2021/05/18 12:41:47;;;;;;;;;;;12.90;99.90;;;;;;5093131;28;19915;-68
2021/05/18 12:44:14;;;;;;;;;;;12.90;99.90;;;;;;5092885;28;19942;-71
2021/05/18 12:46:53;;;;;;;;;;;12.80;99.90;;;;;;5092418;28;20382;-70
2021/05/18 12:49:38;;;;;;;;;;;12.80;99.90;;;;;;5092730;28;19917;-71
2021/05/18 12:52:09;;;;;;;;;;;12.80;99.90;;;;;;5093085;28;19915;-68
2021/05/18 12:54:44;;;;;;;;;;;12.70;99.90;;;;;;5093046;28;20010;-71
2021/05/18 12:57:11;;;;;;;;;;;12.70;99.90;;;;;;5093058;28;19908;-70
2021/05/18 12:59:56;;;;;;;;;;;12.70;99.90;;;;;;5092774;28;19908;-71
2021/05/18 13:02:29;;;;;;;;;;;12.60;99.90;;;;;;5092411;28;19954;-70
2021/05/18 13:05:04;;;;;;;;;;;12.60;99.90;;;;;;5092562;28;19935;-69
2021/05/18 13:07:31;;;;;;;;;;;12.70;99.90;;;;;;5092247;28;20389;-70
2021/05/18 13:10:26;;;;;;;;;;;12.70;99.90;;;;;;5093461;28;19919;-71
2021/05/18 13:13:02;;;;;;;;;;;12.70;99.90;;;;;;5096814;28;19951;-70
2021/05/18 13:15:29;;;;;;;;;;;12.70;99.90;;;;;;5097045;28;19908;-71
2021/05/18 13:17:57;;;;;;;;;;;12.70;99.90;;;;;;5096825;28;19908;-68
2021/05/18 13:20:24;;;;;;;;;;;12.70;99.90;;;;;;5096657;28;19915;-70
2021/05/18 13:22:57;;;;;;;;;;;12.70;99.90;;;;;;5096555;28;19914;-71
2021/05/18 13:28:08;;;;;;;;;;;12.70;99.90;;;;;;5096684;28;19969;-70
2021/05/18 13:30:38;;;;;;;;;;;12.70;99.90;;;;;;5096615;28;19908;-71
2021/05/18 13:33:07;;;;;;;;;;;12.70;99.90;;;;;;5096304;28;19908;-69
2021/05/18 13:35:34;;;;;;;;;;;12.70;99.90;;;;;;5096303;28;19908;-68
2021/05/18 13:38:01;;;;;;;;;;;12.70;99.90;;;;;;5096380;28;20343;-68
2021/05/18 13:40:28;;;;;;;;;;;12.70;99.90;;;;;;5096425;28;20362;-71
2021/05/18 13:42:55;;;;;;;;;;;12.70;99.90;;;;;;5096016;28;19912;-72
2021/05/18 13:45:25;;;;;;;;;;;12.70;99.90;;;;;;5096407;28;19908;-70
2021/05/18 13:47:54;;;;;;;;;;;12.70;99.90;;;;;;5096077;28;20354;-71
2021/05/18 13:50:24;;;;;;;;;;;12.60;99.90;;;;;;5096355;28;19908;-71
2021/05/18 13:52:51;;;;;;;;;;;12.60;99.90;;;;;;5096098;28;20342;-71
2021/05/18 13:55:18;;;;;;;;;;;12.60;99.90;;;;;;5096240;28;19908;-70
2021/05/18 13:57:44;;;;;;;;;;;12.50;99.90;;;;;;5095992;28;19908;-68
2021/05/18 14:00:13;;;;;;;;;;;12.50;99.90;;;;;;5095833;28;19915;-70
2021/05/18 14:02:41;;;;;;;;;;;12.40;99.90;;;;;;5096106;28;19915;-70
2021/05/18 14:05:09;;;;;;;;;;;12.40;99.90;;;;;;5095563;28;19908;-67
2021/05/18 14:10:18;;;;;;;;;;;12.30;99.90;;;;;;5096076;28;19909;-68
2021/05/18 14:12:45;;;;;;;;;;;12.30;99.90;;;;;;5095686;28;19920;-68
2021/05/18 14:15:12;;;;;;;;;;;12.20;99.90;;;;;;5095689;28;19915;-67
2021/05/18 14:17:38;;;;;;;;;;;12.20;99.90;;;;;;5077520;28;19912;-68
2021/05/18 14:20:06;;;;;;;;;;;12.20;99.90;;;;;;5095620;28;19908;-70
2021/05/18 14:22:32;;;;;;;;;;;12.20;99.90;;;;;;5094915;28;20415;-67
2021/05/18 14:25:06;;;;;;;;;;;12.20;99.90;;;;;;5095425;28;19994;-67
2021/05/18 14:27:33;;;;;;;;;;;12.20;99.90;;;;;;5095562;28;19913;-67
2021/05/18 14:30:00;;;;;;;;;;;12.10;99.90;;;;;;5095631;28;19909;-69
2021/05/18 14:32:27;;;;;;;;;;;12.20;99.90;;;;;;5095364;28;20317;-69
2021/05/18 14:34:54;;;;;;;;;;;12.10;99.90;;;;;;5094957;28;20278;-68
2021/05/18 14:37:23;;;;;;;;;;;12.10;99.90;;;;;;5095238;28;19939;-68
2021/05/18 14:45:03;;;;;;;;;;;12.10;99.90;;;;;;5095373;28;19927;-68
2021/05/18 14:47:49;;;;;;;;;;;12.10;99.90;;;;;;5094944;28;19916;-68
2021/05/18 14:55:45;;;;;;;;;;;12.10;99.90;;;;;;5095112;28;19915;-68
2021/05/18 14:58:15;;;;;;;;;;;12.10;99.90;;;;;;5094894;28;19908;-71
2021/05/18 15:00:42;;;;;;;;;;;12.00;99.90;;;;;;5094733;28;20327;-71
2021/05/18 15:03:09;;;;;;;;;;;12.00;99.90;;;;;;5094774;28;19915;-68
2021/05/18 15:05:40;;;;;;;;;;;12.00;99.90;;;;;;5094782;28;19961;-68
2021/05/18 15:08:07;;;;;;;;;;;12.10;99.90;;;;;;5094791;28;19916;-69
2021/05/18 15:10:34;;;;;;;;;;;12.10;99.90;;;;;;5094845;28;19908;-70
2021/05/18 15:13:01;;;;;;;;;;;12.10;99.90;;;;;;5094509;28;19908;-68
2021/05/18 15:15:28;;;;;;;;;;;12.10;99.90;;;;;;5095045;28;20363;-70
2021/05/18 15:17:57;;;;;;;;;;;12.20;99.90;;;;;;5094957;28;19908;-69
2021/05/18 15:20:27;;;;;;;;;;;12.20;99.90;;;;;;5094759;28;20274;-69
2021/05/18 15:22:53;;;;;;;;;;;12.20;99.90;;;;;;5094515;28;19954;-67
2021/05/18 15:25:23;;;;;;;;;;;12.20;99.90;;;;;;5094749;28;20370;-70
2021/05/18 15:27:49;;;;;;;;;;;12.20;99.90;;;;;;5094478;28;19935;-70
2021/05/18 15:30:16;;;;;;;;;;;12.30;99.90;;;;;;5094586;28;20381;-68
2021/05/18 15:32:43;;;;;;;;;;;12.30;99.90;;;;;;5093772;28;20316;-67
2021/05/18 15:35:10;;;;;;;;;;;12.40;99.90;;;;;;5093594;28;19909;-69
2021/05/18 15:37:37;;;;;;;;;;;12.40;99.90;;;;;;5094385;28;19922;-68
2021/05/18 15:40:04;;;;;;;;;;;12.40;99.90;;;;;;5094248;28;19915;-68
2021/05/18 15:42:31;;;;;;;;;;;12.40;99.90;;;;;;5093973;28;19908;-68
2021/05/18 15:44:57;;;;;;;;;;;12.40;99.90;;;;;;5093945;28;20386;-68
2021/05/18 15:47:24;;;;;;;;;;;12.30;99.90;;;;;;5093725;28;19958;-67
2021/05/18 15:49:51;;;;;;;;;;;12.30;99.90;;;;;;5094005;28;19961;-68
2021/05/18 15:52:17;;;;;;;;;;;12.20;99.90;;;;;;5093973;28;19934;-68
2021/05/18 15:54:44;;;;;;;;;;;12.20;99.90;;;;;;5093622;28;19909;-69
2021/05/18 15:57:11;;;;;;;;;;;12.20;99.90;;;;;;5093925;28;19908;-67
2021/05/18 15:59:38;;;;;;;;;;;12.10;99.90;;;;;;5093796;28;19939;-67
2021/05/18 16:02:05;;;;;;;;;;;12.10;99.90;;;;;;5093745;28;19909;-67
2021/05/18 16:04:31;;;;;;;;;;;12.10;99.90;;;;;;5093377;28;19915;-68
2021/05/18 16:07:06;;;;;;;;;;;12.00;99.90;;;;;;5093253;28;19908;-68
2021/05/18 16:09:33;;;;;;;;;;;11.90;99.90;;;;;;5093642;28;20321;-68
2021/05/18 16:12:00;;;;;;;;;;;12.00;99.90;;;;;;5093413;28;20282;-68
2021/05/18 16:14:26;;;;;;;;;;;11.90;99.90;;;;;;5093627;28;19909;-68
2021/05/18 16:16:53;;;;;;;;;;;11.90;99.90;;;;;;5093258;28;19908;-69
2021/05/18 16:19:19;;;;;;;;;;;11.80;99.90;;;;;;5093484;28;19908;-68
2021/05/18 16:21:47;;;;;;;;;;;11.80;99.90;;;;;;5093188;28;19999;-69
2021/05/18 16:24:13;;;;;;;;;;;11.70;99.90;;;;;;5093400;28;19908;-69
2021/05/18 16:26:40;;;;;;;;;;;11.70;99.90;;;;;;5093202;28;19908;-69
2021/05/18 16:29:07;;;;;;;;;;;11.60;99.90;;;;;;5093002;28;20378;-70
2021/05/18 16:31:33;;;;;;;;;;;11.60;99.90;;;;;;5093408;28;19908;-69
2021/05/18 16:34:00;;;;;;;;;;;11.50;99.90;;;;;;5093060;28;19908;-66
2021/05/18 16:36:28;;;;;;;;;;;11.50;99.90;;;;;;5093017;28;19933;-71
2021/05/18 16:38:57;;;;;;;;;;;11.50;99.90;;;;;;5093009;28;19908;-70
2021/05/18 16:41:24;;;;;;;;;;;11.40;99.90;;;;;;5093229;28;20313;-67
2021/05/18 16:43:51;;;;;;;;;;;11.40;99.90;;;;;;5092957;28;19924;-67
2021/05/18 16:46:18;;;;;;;;;;;11.50;99.90;;;;;;5092762;28;19995;-68
2021/05/18 16:48:44;;;;;;;;;;;11.60;99.90;;;;;;5092384;28;19962;-69
2021/05/18 16:51:11;;;;;;;;;;;11.60;99.90;;;;;;5093087;28;19916;-68
2021/05/18 16:53:38;;;;;;;;;;;11.70;99.90;;;;;;5092939;28;19999;-67
2021/05/18 16:56:07;;;;;;;;;;;11.80;99.90;;;;;;5093037;28;20273;-71
2021/05/18 16:58:35;;;;;;;;;;;11.90;99.90;;;;;;5092841;28;19909;-67
2021/05/18 17:01:01;;;;;;;;;;;11.90;99.90;;;;;;5092750;28;20007;-67
2021/05/18 17:03:28;;;;;;;;;;;12.00;99.90;;;;;;5092717;28;19908;-68
2021/05/18 17:05:55;;;;;;;;;;;12.00;99.90;;;;;;5092921;28;19912;-68
2021/05/18 17:08:21;;;;;;;;;;;12.10;99.90;;;;;;5092887;28;19916;-68
2021/05/18 17:10:48;;;;;;;;;;;12.10;99.90;;;;;;5092490;28;19908;-68
2021/05/18 17:13:15;;;;;;;;;;;12.10;99.90;;;;;;5092925;28;19915;-71
2021/05/18 17:15:42;;;;;;;;;;;12.20;99.90;;;;;;5092779;28;19960;-68
2021/05/18 17:18:08;;;;;;;;;;;12.10;99.90;;;;;;5092716;28;19908;-67
2021/05/18 17:20:36;;;;;;;;;;;12.10;99.90;;;;;;5092899;28;19908;-67
2021/05/18 17:23:04;;;;;;;;;;;12.10;99.90;;;;;;5092499;28;19991;-67
2021/05/18 17:25:31;;;;;;;;;;;12.10;99.90;;;;;;5092842;28;20278;-68
2021/05/18 17:27:57;;;;;;;;;;;12.10;99.90;;;;;;5092543;28;20379;-67
2021/05/18 17:30:26;;;;;;;;;;;12.10;99.90;;;;;;5092528;28;19995;-68
2021/05/18 17:32:54;;;;;;;;;;;12.10;99.90;;;;;;5092266;28;19914;-68
2021/05/18 17:35:21;;;;;;;;;;;12.00;99.90;;;;;;5092779;28;19908;-67
2021/05/18 17:37:48;;;;;;;;;;;12.00;99.90;;;;;;5092494;28;20366;-68
2021/05/18 17:40:15;;;;;;;;;;;11.90;99.90;;;;;;5092708;28;19915;-70
2021/05/18 17:42:42;;;;;;;;;;;11.90;99.90;;;;;;5092399;28;19912;-68
2021/05/18 17:45:10;;;;;;;;;;;11.80;99.90;;;;;;5092527;28;20003;-68
2021/05/18 17:47:37;;;;;;;;;;;11.70;99.90;;;;;;5092112;28;19931;-69
2021/05/18 17:50:04;;;;;;;;;;;11.70;99.90;;;;;;5092620;28;19908;-68
2021/05/18 17:52:31;;;;;;;;;;;11.60;99.90;;;;;;5092519;28;19908;-69
2021/05/18 17:54:58;;;;;;;;;;;11.50;99.90;;;;;;5092296;28;19908;-69
2021/05/18 17:57:25;;;;;;;;;;;11.50;99.90;;;;;;5093739;28;19908;-68
2021/05/18 17:59:51;;;;;;;;;;;11.40;99.90;;;;;;5096061;28;19962;-69
2021/05/18 18:02:18;;;;;;;;;;;11.30;99.90;;;;;;5095796;28;19985;-68
2021/05/18 18:04:45;;;;;;;;;;;11.30;99.90;;;;;;5095687;28;19912;-68
2021/05/18 18:07:11;;;;;;;;;;;11.20;99.90;;;;;;5095756;28;19966;-67
2021/05/18 18:09:41;;;;;;;;;;;11.20;99.90;;;;;;5096029;28;19909;-68
2021/05/18 18:12:08;;;;;;;;;;;11.10;99.90;;;;;;5095612;28;19914;-68
2021/05/18 18:14:36;;;;;;;;;;;11.10;99.90;;;;;;5095803;28;19908;-68
2021/05/18 18:17:06;;;;;;;;;;;11.00;99.90;;;;;;5095591;28;19918;-68
2021/05/18 18:19:35;;;;;;;;;;;11.00;99.90;;;;;;5095719;28;20308;-68
2021/05/18 18:22:02;;;;;;;;;;;11.10;99.90;;;;;;5095833;28;20374;-69
2021/05/18 18:24:31;;;;;;;;;;;11.20;99.90;;;;;;5095702;28;19954;-69
2021/05/18 18:26:58;;;;;;;;;;;11.20;99.90;;;;;;5095287;28;19973;-69
2021/05/18 18:29:25;;;;;;;;;;;11.10;99.90;;;;;;5095600;28;20004;-68
2021/05/18 18:31:51;;;;;;;;;;;11.10;99.90;;;;;;5095371;28;19973;-68
2021/05/18 18:34:18;;;;;;;;;;;11.00;99.90;;;;;;5095477;28;19908;-69
2021/05/18 18:36:46;;;;;;;;;;;11.00;99.90;;;;;;5095261;28;19908;-71
2021/05/18 18:39:14;;;;;;;;;;;11.00;99.90;;;;;;5095223;28;20003;-70
2021/05/18 18:41:41;;;;;;;;;;;11.00;99.90;;;;;;5095354;28;19912;-69
2021/05/18 18:44:08;;;;;;;;;;;11.00;99.90;;;;;;5095135;28;19971;-69
2021/05/18 18:46:37;;;;;;;;;;;11.00;99.90;;;;;;5094916;28;19912;-68
2021/05/18 18:49:06;;;;;;;;;;;10.90;99.90;;;;;;5094804;28;20389;-68
2021/05/18 18:51:34;;;;;;;;;;;10.90;99.90;;;;;;5095138;28;19908;-69
2021/05/18 18:54:02;;;;;;;;;;;10.80;99.90;;;;;;5094954;28;19919;-68
2021/05/18 18:56:29;;;;;;;;;;;10.80;99.90;;;;;;5094854;28;19908;-68
2021/05/18 18:58:55;;;;;;;;;;;10.70;99.90;;;;;;5094693;28;19914;-68
2021/05/18 19:01:23;;;;;;;;;;;10.60;99.90;;;;;;5094756;28;19916;-71
2021/05/18 19:03:54;;;;;;;;;;;10.60;99.90;;;;;;5094686;28;19912;-72
2021/05/18 19:14:19;;;;;;;;;;;10.40;99.90;;;;;;5094873;28;19973;-69
2021/05/18 19:16:48;;;;;;;;;;;10.40;99.90;;;;;;5094222;28;20358;-68
2021/05/18 19:19:16;;;;;;;;;;;10.40;99.90;;;;;;5094624;28;20262;-69
2021/05/18 19:21:43;;;;;;;;;;;10.30;99.90;;;;;;5094350;28;19915;-68
2021/05/18 19:24:10;;;;;;;;;;;10.40;99.90;;;;;;5094410;28;19930;-70
2021/05/18 19:26:38;;;;;;;;;;;10.40;99.90;;;;;;5094430;28;20336;-69